sensor_id;sensor_type;location;lat;lon;timestamp;P1;durP1;ratioP1;P2;durP2;ratioP2
61903;SDS011;47857;52.270;6.804;2022-09-13T00:00:13;21.75;;;15.80;;
61903;SDS011;47857;52.270;6.804;2022-09-13T00:02:38;18.10;;;14.95;;
61903;SDS011;47857;52.270;6.804;2022-09-13T00:05:04;19.60;;;14.40;;
61903;SDS011;47857;52.270;6.804;2022-09-13T00:07:30;21.30;;;15.85;;
61903;SDS011;47857;52.270;6.804;2022-09-13T00:09:55;17.17;;;15.30;;
61903;SDS011;47857;52.270;6.804;2022-09-13T00:12:20;20.75;;;15.65;;
61903;SDS011;47857;52.270;6.804;2022-09-13T00:14:46;20.23;;;15.18;;
61903;SDS011;47857;52.270;6.804;2022-09-13T00:17:12;17.42;;;15.20;;
61903;SDS011;47857;52.270;6.804;2022-09-13T00:19:37;20.63;;;15.65;;
61903;SDS011;47857;52.270;6.804;2022-09-13T00:22:03;18.65;;;15.73;;
61903;SDS011;47857;52.270;6.804;2022-09-13T00:24:30;21.40;;;15.75;;
61903;SDS011;47857;52.270;6.804;2022-09-13T00:26:58;18.70;;;16.00;;
61903;SDS011;47857;52.270;6.804;2022-09-13T00:29:27;23.00;;;16.13;;
61903;SDS011;47857;52.270;6.804;2022-09-13T00:31:52;18.05;;;15.50;;
61903;SDS011;47857;52.270;6.804;2022-09-13T00:34:18;18.55;;;16.08;;
61903;SDS011;47857;52.270;6.804;2022-09-13T00:36:43;18.30;;;15.57;;
61903;SDS011;47857;52.270;6.804;2022-09-13T00:39:09;20.48;;;16.05;;
61903;SDS011;47857;52.270;6.804;2022-09-13T00:41:35;19.15;;;17.05;;
61903;SDS011;47857;52.270;6.804;2022-09-13T00:44:02;20.10;;;16.65;;
61903;SDS011;47857;52.270;6.804;2022-09-13T00:49:43;20.30;;;16.55;;
61903;SDS011;47857;52.270;6.804;2022-09-13T00:51:56;21.13;;;16.88;;
61903;SDS011;47857;52.270;6.804;2022-09-13T00:54:25;24.35;;;16.83;;
61903;SDS011;47857;52.270;6.804;2022-09-13T00:56:53;21.27;;;16.48;;
61903;SDS011;47857;52.270;6.804;2022-09-13T00:59:22;21.75;;;16.65;;
61903;SDS011;47857;52.270;6.804;2022-09-13T01:01:57;20.83;;;15.93;;
61903;SDS011;47857;52.270;6.804;2022-09-13T01:04:26;18.77;;;16.65;;
61903;SDS011;47857;52.270;6.804;2022-09-13T01:06:53;20.63;;;16.88;;
61903;SDS011;47857;52.270;6.804;2022-09-13T01:09:20;21.65;;;17.02;;
61903;SDS011;47857;52.270;6.804;2022-09-13T01:11:54;19.75;;;16.48;;
61903;SDS011;47857;52.270;6.804;2022-09-13T01:14:28;19.98;;;17.27;;
61903;SDS011;47857;52.270;6.804;2022-09-13T01:16:54;21.52;;;16.95;;
61903;SDS011;47857;52.270;6.804;2022-09-13T01:19:20;22.75;;;16.83;;
61903;SDS011;47857;52.270;6.804;2022-09-13T01:25:05;20.52;;;17.23;;
61903;SDS011;47857;52.270;6.804;2022-09-13T01:27:30;21.60;;;17.08;;
61903;SDS011;47857;52.270;6.804;2022-09-13T01:30:20;20.50;;;17.20;;
61903;SDS011;47857;52.270;6.804;2022-09-13T01:43:56;22.00;;;17.95;;
61903;SDS011;47857;52.270;6.804;2022-09-13T01:49:16;24.05;;;18.40;;
61903;SDS011;47857;52.270;6.804;2022-09-13T01:51:49;23.30;;;18.58;;
61903;SDS011;47857;52.270;6.804;2022-09-13T01:57:12;25.08;;;20.05;;
61903;SDS011;47857;52.270;6.804;2022-09-13T01:59:45;24.35;;;18.92;;
61903;SDS011;47857;52.270;6.804;2022-09-13T02:04:59;25.45;;;19.25;;
61903;SDS011;47857;52.270;6.804;2022-09-13T02:07:30;23.80;;;20.13;;
61903;SDS011;47857;52.270;6.804;2022-09-13T02:10:01;24.30;;;19.50;;
61903;SDS011;47857;52.270;6.804;2022-09-13T02:12:34;24.15;;;19.60;;
61903;SDS011;47857;52.270;6.804;2022-09-13T02:15:07;26.42;;;20.30;;
61903;SDS011;47857;52.270;6.804;2022-09-13T02:17:38;27.98;;;19.85;;
61903;SDS011;47857;52.270;6.804;2022-09-13T02:20:29;24.05;;;19.35;;
61903;SDS011;47857;52.270;6.804;2022-09-13T02:22:53;23.33;;;19.05;;
61903;SDS011;47857;52.270;6.804;2022-09-13T02:25:21;25.27;;;19.73;;
61903;SDS011;47857;52.270;6.804;2022-09-13T02:27:50;24.00;;;19.30;;
61903;SDS011;47857;52.270;6.804;2022-09-13T02:30:23;22.77;;;18.27;;
61903;SDS011;47857;52.270;6.804;2022-09-13T02:32:56;23.75;;;18.70;;
61903;SDS011;47857;52.270;6.804;2022-09-13T02:38:21;27.98;;;19.52;;
61903;SDS011;47857;52.270;6.804;2022-09-13T02:40:52;24.90;;;19.50;;
61903;SDS011;47857;52.270;6.804;2022-09-13T02:43:26;22.52;;;18.92;;
61903;SDS011;47857;52.270;6.804;2022-09-13T02:46:09;26.30;;;19.40;;
61903;SDS011;47857;52.270;6.804;2022-09-13T02:51:28;24.10;;;18.63;;
61903;SDS011;47857;52.270;6.804;2022-09-13T02:59:55;23.60;;;18.70;;
61903;SDS011;47857;52.270;6.804;2022-09-13T03:02:21;23.88;;;18.55;;
61903;SDS011;47857;52.270;6.804;2022-09-13T03:04:50;22.77;;;18.58;;
61903;SDS011;47857;52.270;6.804;2022-09-13T03:07:15;24.23;;;18.58;;
61903;SDS011;47857;52.270;6.804;2022-09-13T03:10:17;23.23;;;18.45;;
61903;SDS011;47857;52.270;6.804;2022-09-13T03:15:44;24.30;;;18.40;;
61903;SDS011;47857;52.270;6.804;2022-09-13T03:21:25;23.90;;;18.38;;
61903;SDS011;47857;52.270;6.804;2022-09-13T03:34:48;24.52;;;18.63;;
61903;SDS011;47857;52.270;6.804;2022-09-13T03:37:31;23.73;;;18.10;;
61903;SDS011;47857;52.270;6.804;2022-09-13T03:40:11;23.50;;;17.85;;
61903;SDS011;47857;52.270;6.804;2022-09-13T03:42:47;25.48;;;18.58;;
61903;SDS011;47857;52.270;6.804;2022-09-13T03:45:17;22.52;;;17.58;;
61903;SDS011;47857;52.270;6.804;2022-09-13T03:47:45;24.52;;;18.42;;
61903;SDS011;47857;52.270;6.804;2022-09-13T03:50:14;24.40;;;18.60;;
61903;SDS011;47857;52.270;6.804;2022-09-13T03:52:42;25.05;;;19.33;;
61903;SDS011;47857;52.270;6.804;2022-09-13T03:55:08;21.95;;;18.35;;
61903;SDS011;47857;52.270;6.804;2022-09-13T03:57:33;24.23;;;19.00;;
61903;SDS011;47857;52.270;6.804;2022-09-13T03:59:59;24.05;;;18.25;;
61903;SDS011;47857;52.270;6.804;2022-09-13T04:02:25;25.50;;;19.27;;
61903;SDS011;47857;52.270;6.804;2022-09-13T04:04:50;22.35;;;18.55;;
61903;SDS011;47857;52.270;6.804;2022-09-13T04:07:17;21.75;;;18.75;;
61903;SDS011;47857;52.270;6.804;2022-09-13T04:09:44;21.88;;;18.02;;
61903;SDS011;47857;52.270;6.804;2022-09-13T04:12:10;23.98;;;18.30;;
61903;SDS011;47857;52.270;6.804;2022-09-13T04:14:37;24.30;;;18.92;;
61903;SDS011;47857;52.270;6.804;2022-09-13T04:17:03;24.13;;;18.90;;
61903;SDS011;47857;52.270;6.804;2022-09-13T04:19:28;25.50;;;17.88;;
61903;SDS011;47857;52.270;6.804;2022-09-13T04:21:55;24.15;;;17.83;;
61903;SDS011;47857;52.270;6.804;2022-09-13T04:24:22;27.48;;;18.30;;
61903;SDS011;47857;52.270;6.804;2022-09-13T04:26:52;24.55;;;18.23;;
61903;SDS011;47857;52.270;6.804;2022-09-13T04:29:19;25.20;;;18.60;;
61903;SDS011;47857;52.270;6.804;2022-09-13T04:31:45;23.00;;;19.20;;
61903;SDS011;47857;52.270;6.804;2022-09-13T04:34:11;25.33;;;19.48;;
61903;SDS011;47857;52.270;6.804;2022-09-13T04:36:37;22.48;;;18.58;;
61903;SDS011;47857;52.270;6.804;2022-09-13T04:39:03;21.83;;;18.23;;
61903;SDS011;47857;52.270;6.804;2022-09-13T04:41:28;63.15;;;43.72;;
61903;SDS011;47857;52.270;6.804;2022-09-13T04:43:54;72.57;;;49.28;;
61903;SDS011;47857;52.270;6.804;2022-09-13T04:46:20;100.65;;;67.93;;
61903;SDS011;47857;52.270;6.804;2022-09-13T04:48:51;93.15;;;63.78;;
61903;SDS011;47857;52.270;6.804;2022-09-13T04:51:17;136.88;;;91.93;;
61903;SDS011;47857;52.270;6.804;2022-09-13T04:53:44;103.95;;;69.03;;
61903;SDS011;47857;52.270;6.804;2022-09-13T04:56:10;108.63;;;72.68;;
61903;SDS011;47857;52.270;6.804;2022-09-13T04:58:38;45.13;;;32.65;;
61903;SDS011;47857;52.270;6.804;2022-09-13T05:01:05;32.80;;;26.08;;
61903;SDS011;47857;52.270;6.804;2022-09-13T05:03:32;30.27;;;23.80;;
61903;SDS011;47857;52.270;6.804;2022-09-13T05:06:02;29.95;;;22.15;;
61903;SDS011;47857;52.270;6.804;2022-09-13T05:08:35;27.35;;;21.40;;
61903;SDS011;47857;52.270;6.804;2022-09-13T05:11:01;29.60;;;22.40;;
61903;SDS011;47857;52.270;6.804;2022-09-13T05:13:27;31.17;;;22.50;;
61903;SDS011;47857;52.270;6.804;2022-09-13T05:18:32;31.45;;;23.98;;
61903;SDS011;47857;52.270;6.804;2022-09-13T05:20:59;44.55;;;30.58;;
61903;SDS011;47857;52.270;6.804;2022-09-13T05:23:25;90.07;;;54.63;;
61903;SDS011;47857;52.270;6.804;2022-09-13T05:25:54;67.20;;;44.17;;
61903;SDS011;47857;52.270;6.804;2022-09-13T05:28:24;80.68;;;47.35;;
61903;SDS011;47857;52.270;6.804;2022-09-13T05:33:51;50.90;;;35.20;;
61903;SDS011;47857;52.270;6.804;2022-09-13T05:36:17;39.47;;;29.15;;
61903;SDS011;47857;52.270;6.804;2022-09-13T05:38:43;73.22;;;45.47;;
61903;SDS011;47857;52.270;6.804;2022-09-13T05:41:09;78.60;;;50.15;;
61903;SDS011;47857;52.270;6.804;2022-09-13T05:43:35;71.05;;;43.50;;
61903;SDS011;47857;52.270;6.804;2022-09-13T05:46:09;43.50;;;31.10;;
61903;SDS011;47857;52.270;6.804;2022-09-13T05:48:36;37.92;;;26.50;;
61903;SDS011;47857;52.270;6.804;2022-09-13T05:51:17;40.17;;;26.20;;
61903;SDS011;47857;52.270;6.804;2022-09-13T05:53:45;30.57;;;24.73;;
61903;SDS011;47857;52.270;6.804;2022-09-13T05:56:13;36.92;;;25.95;;
61903;SDS011;47857;52.270;6.804;2022-09-13T05:58:41;33.50;;;24.88;;
61903;SDS011;47857;52.270;6.804;2022-09-13T06:01:08;33.88;;;25.25;;
61903;SDS011;47857;52.270;6.804;2022-09-13T06:03:35;37.45;;;24.42;;
61903;SDS011;47857;52.270;6.804;2022-09-13T06:06:01;30.80;;;24.13;;
61903;SDS011;47857;52.270;6.804;2022-09-13T06:08:28;31.55;;;24.20;;
61903;SDS011;47857;52.270;6.804;2022-09-13T06:10:54;28.00;;;23.95;;
61903;SDS011;47857;52.270;6.804;2022-09-13T06:13:27;35.33;;;24.90;;
61903;SDS011;47857;52.270;6.804;2022-09-13T06:15:53;32.65;;;25.02;;
61903;SDS011;47857;52.270;6.804;2022-09-13T06:18:20;29.40;;;24.50;;
61903;SDS011;47857;52.270;6.804;2022-09-13T06:20:45;29.73;;;23.80;;
61903;SDS011;47857;52.270;6.804;2022-09-13T06:23:12;32.13;;;23.60;;
61903;SDS011;47857;52.270;6.804;2022-09-13T06:25:37;31.35;;;23.60;;
61903;SDS011;47857;52.270;6.804;2022-09-13T06:28:03;34.42;;;24.95;;
61903;SDS011;47857;52.270;6.804;2022-09-13T06:30:29;32.28;;;25.38;;
61903;SDS011;47857;52.270;6.804;2022-09-13T06:32:55;32.30;;;23.75;;
61903;SDS011;47857;52.270;6.804;2022-09-13T06:35:21;33.35;;;24.38;;
61903;SDS011;47857;52.270;6.804;2022-09-13T06:37:46;32.03;;;23.73;;
61903;SDS011;47857;52.270;6.804;2022-09-13T06:40:12;30.38;;;23.25;;
61903;SDS011;47857;52.270;6.804;2022-09-13T06:42:37;35.50;;;23.00;;
61903;SDS011;47857;52.270;6.804;2022-09-13T06:45:03;31.95;;;22.55;;
61903;SDS011;47857;52.270;6.804;2022-09-13T06:47:29;32.75;;;23.58;;
61903;SDS011;47857;52.270;6.804;2022-09-13T06:49:55;29.40;;;23.05;;
61903;SDS011;47857;52.270;6.804;2022-09-13T06:52:21;33.90;;;23.25;;
61903;SDS011;47857;52.270;6.804;2022-09-13T06:54:47;30.75;;;22.17;;
61903;SDS011;47857;52.270;6.804;2022-09-13T06:57:12;28.83;;;23.02;;
61903;SDS011;47857;52.270;6.804;2022-09-13T06:59:38;30.50;;;22.33;;
61903;SDS011;47857;52.270;6.804;2022-09-13T07:02:03;28.88;;;22.48;;
61903;SDS011;47857;52.270;6.804;2022-09-13T07:04:29;30.05;;;23.23;;
61903;SDS011;47857;52.270;6.804;2022-09-13T07:06:57;30.45;;;22.52;;
61903;SDS011;47857;52.270;6.804;2022-09-13T07:09:23;34.05;;;23.23;;
61903;SDS011;47857;52.270;6.804;2022-09-13T07:11:50;28.77;;;23.08;;
61903;SDS011;47857;52.270;6.804;2022-09-13T07:14:19;31.38;;;23.38;;
61903;SDS011;47857;52.270;6.804;2022-09-13T07:16:46;30.35;;;23.00;;
61903;SDS011;47857;52.270;6.804;2022-09-13T07:19:12;30.38;;;22.75;;
61903;SDS011;47857;52.270;6.804;2022-09-13T07:21:42;31.77;;;24.02;;
61903;SDS011;47857;52.270;6.804;2022-09-13T07:24:12;29.27;;;22.95;;
61903;SDS011;47857;52.270;6.804;2022-09-13T07:26:38;31.30;;;23.08;;
61903;SDS011;47857;52.270;6.804;2022-09-13T07:29:05;29.13;;;22.65;;
61903;SDS011;47857;52.270;6.804;2022-09-13T07:31:33;30.98;;;23.42;;
61903;SDS011;47857;52.270;6.804;2022-09-13T07:34:01;29.23;;;23.63;;
61903;SDS011;47857;52.270;6.804;2022-09-13T07:36:28;30.02;;;23.55;;
61903;SDS011;47857;52.270;6.804;2022-09-13T07:38:55;29.17;;;22.67;;
61903;SDS011;47857;52.270;6.804;2022-09-13T07:41:22;34.83;;;23.48;;
61903;SDS011;47857;52.270;6.804;2022-09-13T07:43:49;30.35;;;22.27;;
61903;SDS011;47857;52.270;6.804;2022-09-13T07:46:19;26.23;;;19.98;;
61903;SDS011;47857;52.270;6.804;2022-09-13T07:48:50;29.65;;;20.85;;
61903;SDS011;47857;52.270;6.804;2022-09-13T07:51:21;27.00;;;20.63;;
61903;SDS011;47857;52.270;6.804;2022-09-13T07:53:49;26.95;;;19.58;;
61903;SDS011;47857;52.270;6.804;2022-09-13T07:56:18;29.30;;;20.27;;
61903;SDS011;47857;52.270;6.804;2022-09-13T07:58:45;29.63;;;19.92;;
61903;SDS011;47857;52.270;6.804;2022-09-13T08:01:22;27.63;;;19.10;;
61903;SDS011;47857;52.270;6.804;2022-09-13T08:03:53;34.05;;;21.58;;
61903;SDS011;47857;52.270;6.804;2022-09-13T08:06:20;27.38;;;20.17;;
61903;SDS011;47857;52.270;6.804;2022-09-13T08:08:46;28.58;;;18.83;;
61903;SDS011;47857;52.270;6.804;2022-09-13T08:11:18;32.30;;;19.85;;
61903;SDS011;47857;52.270;6.804;2022-09-13T08:13:46;28.70;;;19.42;;
61903;SDS011;47857;52.270;6.804;2022-09-13T08:16:12;27.90;;;18.30;;
61903;SDS011;47857;52.270;6.804;2022-09-13T08:18:45;22.27;;;14.77;;
61903;SDS011;47857;52.270;6.804;2022-09-13T08:21:12;24.33;;;14.95;;
61903;SDS011;47857;52.270;6.804;2022-09-13T08:23:38;19.20;;;13.23;;
61903;SDS011;47857;52.270;6.804;2022-09-13T08:26:03;18.83;;;10.90;;
61903;SDS011;47857;52.270;6.804;2022-09-13T08:28:31;18.23;;;11.30;;
61903;SDS011;47857;52.270;6.804;2022-09-13T08:31:04;16.63;;;10.07;;
61903;SDS011;47857;52.270;6.804;2022-09-13T08:33:30;19.77;;;10.25;;
61903;SDS011;47857;52.270;6.804;2022-09-13T08:35:56;20.95;;;11.23;;
61903;SDS011;47857;52.270;6.804;2022-09-13T08:38:22;23.65;;;11.02;;
61903;SDS011;47857;52.270;6.804;2022-09-13T08:40:49;22.38;;;10.75;;
61903;SDS011;47857;52.270;6.804;2022-09-13T08:43:23;17.13;;;10.55;;
61903;SDS011;47857;52.270;6.804;2022-09-13T08:46:05;17.80;;;10.13;;
61903;SDS011;47857;52.270;6.804;2022-09-13T08:48:42;14.80;;;9.60;;
61903;SDS011;47857;52.270;6.804;2022-09-13T08:51:22;17.13;;;10.10;;
61903;SDS011;47857;52.270;6.804;2022-09-13T08:53:53;14.32;;;10.40;;
61903;SDS011;47857;52.270;6.804;2022-09-13T08:56:25;16.77;;;10.27;;
61903;SDS011;47857;52.270;6.804;2022-09-13T09:04:11;13.82;;;8.45;;
61903;SDS011;47857;52.270;6.804;2022-09-13T09:06:42;14.15;;;7.60;;
61903;SDS011;47857;52.270;6.804;2022-09-13T09:09:09;12.48;;;7.78;;
61903;SDS011;47857;52.270;6.804;2022-09-13T09:17:01;10.13;;;6.30;;
61903;SDS011;47857;52.270;6.804;2022-09-13T09:19:33;9.85;;;6.60;;
61903;SDS011;47857;52.270;6.804;2022-09-13T09:22:04;10.48;;;6.82;;
61903;SDS011;47857;52.270;6.804;2022-09-13T09:24:43;11.93;;;7.03;;
61903;SDS011;47857;52.270;6.804;2022-09-13T09:27:13;13.13;;;7.30;;
61903;SDS011;47857;52.270;6.804;2022-09-13T09:29:40;9.05;;;6.90;;
61903;SDS011;47857;52.270;6.804;2022-09-13T09:37:24;8.07;;;6.57;;
61903;SDS011;47857;52.270;6.804;2022-09-13T09:39:52;9.93;;;6.25;;
61903;SDS011;47857;52.270;6.804;2022-09-13T09:42:31;9.18;;;6.43;;
61903;SDS011;47857;52.270;6.804;2022-09-13T09:45:04;9.43;;;6.70;;
61903;SDS011;47857;52.270;6.804;2022-09-13T09:47:43;9.65;;;7.10;;
61903;SDS011;47857;52.270;6.804;2022-09-13T09:50:10;8.52;;;6.28;;
61903;SDS011;47857;52.270;6.804;2022-09-13T09:55:15;8.52;;;5.70;;
61903;SDS011;47857;52.270;6.804;2022-09-13T10:00:34;6.82;;;4.47;;
61903;SDS011;47857;52.270;6.804;2022-09-13T10:03:02;10.45;;;4.57;;
61903;SDS011;47857;52.270;6.804;2022-09-13T10:05:28;7.88;;;4.30;;
61903;SDS011;47857;52.270;6.804;2022-09-13T10:08:00;4.72;;;3.65;;
61903;SDS011;47857;52.270;6.804;2022-09-13T10:10:30;5.82;;;4.40;;
61903;SDS011;47857;52.270;6.804;2022-09-13T10:13:11;7.55;;;4.03;;
61903;SDS011;47857;52.270;6.804;2022-09-13T10:15:39;4.75;;;2.95;;
61903;SDS011;47857;52.270;6.804;2022-09-13T10:18:22;7.00;;;3.10;;
61903;SDS011;47857;52.270;6.804;2022-09-13T10:23:27;6.03;;;3.60;;
61903;SDS011;47857;52.270;6.804;2022-09-13T10:25:54;4.57;;;3.30;;
61903;SDS011;47857;52.270;6.804;2022-09-13T10:28:21;7.32;;;3.17;;
61903;SDS011;47857;52.270;6.804;2022-09-13T10:31:01;6.07;;;2.67;;
61903;SDS011;47857;52.270;6.804;2022-09-13T10:33:33;4.25;;;2.70;;
61903;SDS011;47857;52.270;6.804;2022-09-13T10:36:05;5.22;;;2.60;;
61903;SDS011;47857;52.270;6.804;2022-09-13T10:38:36;5.20;;;1.90;;
61903;SDS011;47857;52.270;6.804;2022-09-13T10:41:04;5.95;;;1.75;;
61903;SDS011;47857;52.270;6.804;2022-09-13T10:43:31;3.58;;;1.60;;
61903;SDS011;47857;52.270;6.804;2022-09-13T10:45:58;4.80;;;1.42;;
61903;SDS011;47857;52.270;6.804;2022-09-13T10:48:25;5.30;;;1.30;;
61903;SDS011;47857;52.270;6.804;2022-09-13T10:51:00;4.00;;;1.17;;
61903;SDS011;47857;52.270;6.804;2022-09-13T10:53:38;4.20;;;1.10;;
61903;SDS011;47857;52.270;6.804;2022-09-13T10:56:05;4.63;;;1.50;;
61903;SDS011;47857;52.270;6.804;2022-09-13T10:58:44;3.88;;;1.20;;
61903;SDS011;47857;52.270;6.804;2022-09-13T11:01:20;4.95;;;1.48;;
61903;SDS011;47857;52.270;6.804;2022-09-13T11:12:55;6.15;;;1.33;;
61903;SDS011;47857;52.270;6.804;2022-09-13T11:27:44;4.15;;;1.20;;
61903;SDS011;47857;52.270;6.804;2022-09-13T11:41:08;3.28;;;1.10;;
61903;SDS011;47857;52.270;6.804;2022-09-13T11:47:03;2.47;;;0.80;;
61903;SDS011;47857;52.270;6.804;2022-09-13T11:57:24;3.92;;;0.95;;
61903;SDS011;47857;52.270;6.804;2022-09-13T11:59:56;2.13;;;0.88;;
61903;SDS011;47857;52.270;6.804;2022-09-13T12:04:51;2.70;;;0.70;;
61903;SDS011;47857;52.270;6.804;2022-09-13T12:07:25;2.17;;;1.10;;
61903;SDS011;47857;52.270;6.804;2022-09-13T12:09:59;3.53;;;0.80;;
61903;SDS011;47857;52.270;6.804;2022-09-13T12:12:31;5.90;;;0.80;;
61903;SDS011;47857;52.270;6.804;2022-09-13T12:17:30;4.13;;;1.08;;
61903;SDS011;47857;52.270;6.804;2022-09-13T12:20:00;2.75;;;0.90;;
61903;SDS011;47857;52.270;6.804;2022-09-13T12:22:29;3.40;;;0.80;;
61903;SDS011;47857;52.270;6.804;2022-09-13T12:24:59;1.60;;;0.90;;
61903;SDS011;47857;52.270;6.804;2022-09-13T12:27:44;2.75;;;0.90;;
61903;SDS011;47857;52.270;6.804;2022-09-13T12:30:14;1.33;;;0.80;;
61903;SDS011;47857;52.270;6.804;2022-09-13T12:32:44;1.77;;;0.50;;
61903;SDS011;47857;52.270;6.804;2022-09-13T12:38:02;3.80;;;0.65;;
61903;SDS011;47857;52.270;6.804;2022-09-13T12:52:19;4.35;;;0.60;;
61903;SDS011;47857;52.270;6.804;2022-09-13T13:00:25;3.50;;;0.60;;
61903;SDS011;47857;52.270;6.804;2022-09-13T13:08:05;4.20;;;0.60;;
61903;SDS011;47857;52.270;6.804;2022-09-13T13:13:45;6.45;;;1.10;;
61903;SDS011;47857;52.270;6.804;2022-09-13T13:18:52;4.80;;;1.00;;
61903;SDS011;47857;52.270;6.804;2022-09-13T13:21:29;3.35;;;0.70;;
61903;SDS011;47857;52.270;6.804;2022-09-13T13:26:52;9.85;;;1.80;;
61903;SDS011;47857;52.270;6.804;2022-09-13T13:29:20;2.88;;;0.98;;
61903;SDS011;47857;52.270;6.804;2022-09-13T13:39:36;3.50;;;1.00;;
61903;SDS011;47857;52.270;6.804;2022-09-13T13:44:55;4.40;;;0.90;;
61903;SDS011;47857;52.270;6.804;2022-09-13T13:49:50;4.95;;;0.88;;
61903;SDS011;47857;52.270;6.804;2022-09-13T13:52:35;5.35;;;0.70;;
61903;SDS011;47857;52.270;6.804;2022-09-13T14:00:34;4.35;;;0.70;;
61903;SDS011;47857;52.270;6.804;2022-09-13T14:08:02;1.98;;;0.65;;
61903;SDS011;47857;52.270;6.804;2022-09-13T14:16:05;4.40;;;0.70;;
61903;SDS011;47857;52.270;6.804;2022-09-13T14:21:24;5.53;;;0.95;;
61903;SDS011;47857;52.270;6.804;2022-09-13T14:26:45;2.42;;;0.80;;
61903;SDS011;47857;52.270;6.804;2022-09-13T14:29:14;4.72;;;0.70;;
61903;SDS011;47857;52.270;6.804;2022-09-13T14:31:44;5.93;;;0.70;;
61903;SDS011;47857;52.270;6.804;2022-09-13T14:34:20;4.30;;;0.73;;
61903;SDS011;47857;52.270;6.804;2022-09-13T14:36:55;4.23;;;0.77;;
61903;SDS011;47857;52.270;6.804;2022-09-13T14:39:22;4.50;;;0.77;;
61903;SDS011;47857;52.270;6.804;2022-09-13T14:41:48;4.93;;;0.98;;
61903;SDS011;47857;52.270;6.804;2022-09-13T14:44:27;1.90;;;0.70;;
61903;SDS011;47857;52.270;6.804;2022-09-13T14:47:07;5.00;;;0.80;;
61903;SDS011;47857;52.270;6.804;2022-09-13T14:49:40;1.13;;;0.60;;
61903;SDS011;47857;52.270;6.804;2022-09-13T14:52:09;4.45;;;0.65;;
61903;SDS011;47857;52.270;6.804;2022-09-13T14:54:41;3.45;;;0.77;;
61903;SDS011;47857;52.270;6.804;2022-09-13T14:57:09;4.55;;;0.63;;
61903;SDS011;47857;52.270;6.804;2022-09-13T14:59:45;4.10;;;0.82;;
61903;SDS011;47857;52.270;6.804;2022-09-13T15:02:19;2.22;;;0.70;;
61903;SDS011;47857;52.270;6.804;2022-09-13T15:04:49;1.52;;;0.50;;
61903;SDS011;47857;52.270;6.804;2022-09-13T15:07:26;2.08;;;0.60;;
61903;SDS011;47857;52.270;6.804;2022-09-13T15:09:56;4.53;;;0.75;;
61903;SDS011;47857;52.270;6.804;2022-09-13T15:12:25;3.80;;;0.70;;
61903;SDS011;47857;52.270;6.804;2022-09-13T15:20:56;6.15;;;0.75;;
61903;SDS011;47857;52.270;6.804;2022-09-13T15:23:33;7.07;;;0.98;;
61903;SDS011;47857;52.270;6.804;2022-09-13T15:28:29;4.07;;;0.85;;
61903;SDS011;47857;52.270;6.804;2022-09-13T15:30:57;3.50;;;0.70;;
61903;SDS011;47857;52.270;6.804;2022-09-13T15:33:25;5.40;;;0.80;;
61903;SDS011;47857;52.270;6.804;2022-09-13T15:41:20;5.00;;;0.95;;
61903;SDS011;47857;52.270;6.804;2022-09-13T15:43:49;3.05;;;0.60;;
61903;SDS011;47857;52.270;6.804;2022-09-13T15:46:15;4.70;;;0.82;;
61903;SDS011;47857;52.270;6.804;2022-09-13T15:48:43;5.05;;;0.80;;
61903;SDS011;47857;52.270;6.804;2022-09-13T15:51:15;4.07;;;0.90;;
61903;SDS011;47857;52.270;6.804;2022-09-13T15:53:42;5.00;;;0.73;;
61903;SDS011;47857;52.270;6.804;2022-09-13T15:56:11;4.85;;;0.70;;
61903;SDS011;47857;52.270;6.804;2022-09-13T15:58:38;5.68;;;0.80;;
61903;SDS011;47857;52.270;6.804;2022-09-13T16:01:03;3.28;;;0.73;;
61903;SDS011;47857;52.270;6.804;2022-09-13T16:03:29;4.25;;;0.80;;
61903;SDS011;47857;52.270;6.804;2022-09-13T16:05:55;6.72;;;1.02;;
61903;SDS011;47857;52.270;6.804;2022-09-13T16:08:21;5.90;;;1.08;;
61903;SDS011;47857;52.270;6.804;2022-09-13T16:10:47;4.28;;;0.68;;
61903;SDS011;47857;52.270;6.804;2022-09-13T16:13:13;5.05;;;0.80;;
61903;SDS011;47857;52.270;6.804;2022-09-13T16:15:38;7.20;;;0.90;;
61903;SDS011;47857;52.270;6.804;2022-09-13T16:18:04;4.20;;;0.75;;
61903;SDS011;47857;52.270;6.804;2022-09-13T16:20:29;7.95;;;1.27;;
61903;SDS011;47857;52.270;6.804;2022-09-13T16:22:55;5.07;;;1.00;;
61903;SDS011;47857;52.270;6.804;2022-09-13T16:25:20;5.10;;;0.90;;
61903;SDS011;47857;52.270;6.804;2022-09-13T16:27:46;6.00;;;0.90;;
61903;SDS011;47857;52.270;6.804;2022-09-13T16:30:13;6.82;;;1.10;;
61903;SDS011;47857;52.270;6.804;2022-09-13T16:32:41;3.53;;;0.70;;
61903;SDS011;47857;52.270;6.804;2022-09-13T16:35:10;6.85;;;0.95;;
61903;SDS011;47857;52.270;6.804;2022-09-13T16:37:36;3.15;;;0.75;;
61903;SDS011;47857;52.270;6.804;2022-09-13T16:40:03;8.07;;;3.25;;
61903;SDS011;47857;52.270;6.804;2022-09-13T16:42:30;8.13;;;3.63;;
61903;SDS011;47857;52.270;6.804;2022-09-13T16:44:55;5.07;;;1.52;;
61903;SDS011;47857;52.270;6.804;2022-09-13T16:47:21;5.15;;;1.08;;
61903;SDS011;47857;52.270;6.804;2022-09-13T16:49:46;4.78;;;1.08;;
61903;SDS011;47857;52.270;6.804;2022-09-13T16:52:12;3.08;;;0.95;;
61903;SDS011;47857;52.270;6.804;2022-09-13T16:54:37;4.47;;;0.75;;
61903;SDS011;47857;52.270;6.804;2022-09-13T16:57:03;3.10;;;0.80;;
61903;SDS011;47857;52.270;6.804;2022-09-13T16:59:30;5.90;;;0.80;;
61903;SDS011;47857;52.270;6.804;2022-09-13T17:01:56;4.63;;;0.93;;
61903;SDS011;47857;52.270;6.804;2022-09-13T17:04:22;4.15;;;0.93;;
61903;SDS011;47857;52.270;6.804;2022-09-13T17:06:48;5.35;;;1.08;;
61903;SDS011;47857;52.270;6.804;2022-09-13T17:09:13;3.97;;;0.93;;
61903;SDS011;47857;52.270;6.804;2022-09-13T17:11:40;7.20;;;1.02;;
61903;SDS011;47857;52.270;6.804;2022-09-13T17:14:07;3.22;;;0.80;;
61903;SDS011;47857;52.270;6.804;2022-09-13T17:16:42;5.95;;;1.02;;
61903;SDS011;47857;52.270;6.804;2022-09-13T17:19:12;6.05;;;1.05;;
61903;SDS011;47857;52.270;6.804;2022-09-13T17:21:39;4.50;;;0.90;;
61903;SDS011;47857;52.270;6.804;2022-09-13T17:24:05;5.85;;;0.98;;
61903;SDS011;47857;52.270;6.804;2022-09-13T17:26:30;5.05;;;0.90;;
61903;SDS011;47857;52.270;6.804;2022-09-13T17:28:56;4.20;;;0.90;;
61903;SDS011;47857;52.270;6.804;2022-09-13T17:31:21;4.72;;;1.00;;
61903;SDS011;47857;52.270;6.804;2022-09-13T17:33:47;6.57;;;0.93;;
61903;SDS011;47857;52.270;6.804;2022-09-13T17:36:14;2.28;;;0.80;;
61903;SDS011;47857;52.270;6.804;2022-09-13T17:38:40;4.60;;;0.82;;
61903;SDS011;47857;52.270;6.804;2022-09-13T17:43:35;5.43;;;0.88;;
61903;SDS011;47857;52.270;6.804;2022-09-13T17:46:03;4.32;;;0.90;;
61903;SDS011;47857;52.270;6.804;2022-09-13T17:48:29;4.57;;;1.00;;
61903;SDS011;47857;52.270;6.804;2022-09-13T17:51:05;3.65;;;0.80;;
61903;SDS011;47857;52.270;6.804;2022-09-13T17:53:48;4.88;;;1.13;;
61903;SDS011;47857;52.270;6.804;2022-09-13T17:56:15;5.53;;;1.20;;
61903;SDS011;47857;52.270;6.804;2022-09-13T17:58:47;6.55;;;1.08;;
61903;SDS011;47857;52.270;6.804;2022-09-13T18:01:14;4.97;;;0.82;;
61903;SDS011;47857;52.270;6.804;2022-09-13T18:03:39;4.80;;;1.20;;
61903;SDS011;47857;52.270;6.804;2022-09-13T18:06:06;4.18;;;1.00;;
61903;SDS011;47857;52.270;6.804;2022-09-13T18:08:33;8.55;;;1.13;;
61903;SDS011;47857;52.270;6.804;2022-09-13T18:11:00;8.40;;;1.05;;
61903;SDS011;47857;52.270;6.804;2022-09-13T18:13:30;6.03;;;1.40;;
61903;SDS011;47857;52.270;6.804;2022-09-13T18:15:59;7.43;;;1.02;;
61903;SDS011;47857;52.270;6.804;2022-09-13T18:18:33;8.75;;;1.35;;
61903;SDS011;47857;52.270;6.804;2022-09-13T18:21:02;7.75;;;1.00;;